Time,TemperatureF,DewpointF,PressureIn,WindDirection,WindDirectionDegrees,WindSpeedMPH,WindSpeedGustMPH,Humidity,HourlyPrecipIn,Conditions,Clouds,dailyrainin,SoftwareType,DateUTC
2013-02-17 00:15:00,26.1,18.0,28.82,South,178,0.0,0.0,71,0.00,,CLR,0.00,VWS V14.01,2013-02-17 06:15:00,
2013-02-17 00:30:00,26.1,18.0,28.82,South,179,0.0,0.0,71,0.00,,CLR,0.00,VWS V14.01,2013-02-17 06:30:00,
2013-02-17 00:45:00,25.9,17.8,28.82,South,177,0.0,0.0,71,0.00,,CLR,0.00,VWS V14.01,2013-02-17 06:45:00,
2013-02-17 01:00:00,25.9,18.1,28.82,South,177,0.0,0.0,72,0.00,,CLR,0.00,VWS V14.01,2013-02-17 07:00:00,
2013-02-17 01:15:00,25.7,17.9,28.82,South,178,0.0,0.0,72,0.00,,CLR,0.00,VWS V14.01,2013-02-17 07:15:00,
2013-02-17 01:30:00,25.5,17.8,28.82,SW,234,0.0,0.0,72,0.00,,CLR,0.00,VWS V14.01,2013-02-17 07:30:00,
2013-02-17 01:45:00,25.3,17.9,28.82,SSE,152,0.0,0.0,73,0.00,,CLR,0.00,VWS V14.01,2013-02-17 07:45:00,
2013-02-17 02:00:00,25.2,17.7,28.82,SSE,151,0.0,0.0,73,0.00,,CLR,0.00,VWS V14.01,2013-02-17 08:00:00,
2013-02-17 02:15:00,25.0,17.6,28.82,SSE,151,0.0,0.0,73,0.00,,SCT200,0.00,VWS V14.01,2013-02-17 08:15:00,
2013-02-17 02:30:00,25.0,17.9,28.82,SSE,161,0.0,0.0,74,0.00,,SCT200,0.00,VWS V14.01,2013-02-17 08:30:00,
2013-02-17 02:45:00,25.2,18.0,28.82,SSE,161,0.0,0.0,74,0.00,,SCT200,0.00,VWS V14.01,2013-02-17 08:45:00,
2013-02-17 03:00:00,25.3,18.2,28.82,SSE,155,0.0,0.0,74,0.00,,SCT200,0.00,VWS V14.01,2013-02-17 09:00:00,
2013-02-17 03:15:00,25.0,17.6,28.82,SSW,208,0.0,0.0,73,0.00,,SCT200,0.00,VWS V14.01,2013-02-17 09:15:00,
2013-02-17 03:30:00,25.0,17.6,28.82,SSW,200,0.0,0.0,73,0.00,,SCT200,0.00,VWS V14.01,2013-02-17 09:30:00,
2013-02-17 03:45:00,24.8,17.4,28.82,SSW,200,0.0,0.0,73,0.00,,SCT200,0.00,VWS V14.01,2013-02-17 09:45:00,
2013-02-17 04:00:00,24.8,17.4,28.82,SSE,158,0.0,0.0,73,0.00,,SCT200,0.00,VWS V14.01,2013-02-17 10:00:00,
2013-02-17 04:15:00,24.6,17.2,28.79,SSE,159,0.0,0.0,73,0.00,,FEW200,0.00,VWS V14.01,2013-02-17 10:15:00,
2013-02-17 04:30:00,25.0,17.2,28.79,SSE,158,0.0,0.0,72,0.00,,FEW200,0.00,VWS V14.01,2013-02-17 10:30:00,
2013-02-17 04:45:00,25.0,16.9,28.79,SSE,165,0.0,0.0,71,0.00,,FEW200,0.00,VWS V14.01,2013-02-17 10:45:00,
2013-02-17 05:00:00,25.3,16.9,28.79,SSE,147,0.0,0.0,70,0.00,,FEW200,0.00,VWS V14.01,2013-02-17 11:00:00,
2013-02-17 05:15:00,25.2,16.1,28.79,SW,221,0.0,0.0,68,0.00,,FEW200,0.00,VWS V14.01,2013-02-17 11:15:00,
2013-02-17 05:30:00,24.8,16.1,28.79,SW,222,0.0,0.0,69,0.00,,FEW200,0.00,VWS V14.01,2013-02-17 11:30:00,
2013-02-17 05:45:00,24.6,15.9,28.79,SW,221,0.0,0.0,69,0.00,,FEW200,0.00,VWS V14.01,2013-02-17 11:45:00,
2013-02-17 06:00:00,24.6,16.2,28.79,SW,221,0.0,0.0,70,0.00,,FEW200,0.00,VWS V14.01,2013-02-17 12:00:00,
2013-02-17 06:15:00,24.6,16.2,28.79,SSE,163,0.0,0.0,70,0.00,,FEW200,0.00,VWS V14.01,2013-02-17 12:15:00,
2013-02-17 06:30:00,24.4,16.1,28.76,ESE,120,0.0,0.0,70,0.00,,FEW200,0.00,VWS V14.01,2013-02-17 12:30:00,
2013-02-17 06:45:00,24.4,16.1,28.76,South,175,0.0,0.0,70,0.00,,FEW200,0.00,VWS V14.01,2013-02-17 12:45:00,
2013-02-17 07:00:00,24.6,16.2,28.76,SW,215,0.0,0.0,70,0.00,,FEW200,0.00,VWS V14.01,2013-02-17 13:00:00,
2013-02-17 07:15:00,24.6,16.2,28.76,South,180,0.0,0.0,70,0.00,,FEW200,0.00,VWS V14.01,2013-02-17 13:15:00,
2013-02-17 07:30:00,24.6,15.9,28.76,WSW,245,0.0,0.0,69,0.00,,FEW200,0.00,VWS V14.01,2013-02-17 13:30:00,
2013-02-17 07:45:00,24.8,16.4,28.76,SW,220,0.0,0.0,70,0.00,,FEW200,0.00,VWS V14.01,2013-02-17 13:45:00,
2013-02-17 08:00:00,25.5,17.1,28.76,SW,235,0.0,0.0,70,0.00,,FEW200,0.00,VWS V14.01,2013-02-17 14:00:00,
2013-02-17 08:15:00,27.9,19.4,28.76,SW,226,0.0,0.0,70,0.00,,FEW200,0.00,VWS V14.01,2013-02-17 14:15:00,
2013-02-17 08:30:00,29.1,19.5,28.76,WSW,244,0.0,0.0,67,0.00,,FEW200,0.00,VWS V14.01,2013-02-17 14:30:00,
2013-02-17 08:45:00,29.7,17.9,28.76,SW,216,0.0,0.0,61,0.00,,FEW200,0.00,VWS V14.01,2013-02-17 14:45:00,
2013-02-17 09:00:00,30.6,17.1,28.73,WSW,240,0.0,0.0,57,0.00,,FEW200,0.00,VWS V14.01,2013-02-17 15:00:00,
2013-02-17 09:15:00,31.3,17.0,28.76,SW,236,0.0,0.0,55,0.00,,BKN200,0.00,VWS V14.01,2013-02-17 15:15:00,
2013-02-17 09:30:00,32.9,17.2,28.73,WSW,243,0.0,0.0,52,0.00,,BKN200,0.00,VWS V14.01,2013-02-17 15:30:00,
2013-02-17 09:45:00,34.2,17.5,28.73,SSW,201,0.0,8.1,50,0.00,,BKN200,0.00,VWS V14.01,2013-02-17 15:45:00,
2013-02-17 10:00:00,36.1,18.4,28.70,SSW,206,0.0,0.0,48,0.00,,BKN200,0.00,VWS V14.01,2013-02-17 16:00:00,
2013-02-17 10:15:00,37.0,19.2,28.70,SW,226,0.0,0.0,48,0.00,,BKN200,0.00,VWS V14.01,2013-02-17 16:15:00,
2013-02-17 10:30:00,38.7,19.2,28.70,SW,227,0.0,0.0,45,0.00,,BKN200,0.00,VWS V14.01,2013-02-17 16:30:00,
2013-02-17 10:45:00,39.2,19.1,28.70,SSE,158,0.0,0.0,44,0.00,,BKN200,0.00,VWS V14.01,2013-02-17 16:45:00,
2013-02-17 11:00:00,39.9,20.3,28.70,SW,230,0.0,0.0,45,0.00,,BKN200,0.00,VWS V14.01,2013-02-17 17:00:00,
2013-02-17 11:15:00,40.6,21.0,28.70,SW,232,0.0,0.0,45,0.00,,BKN200,0.00,VWS V14.01,2013-02-17 17:15:00,
2013-02-17 11:30:00,42.1,21.8,28.70,SW,222,0.0,0.0,44,0.00,,BKN200,0.00,VWS V14.01,2013-02-17 17:30:00,
2013-02-17 11:45:00,43.0,22.0,28.67,WSW,246,0.0,0.0,43,0.00,,BKN200,0.00,VWS V14.01,2013-02-17 17:45:00,
2013-02-17 12:00:00,44.1,22.5,28.67,SW,227,0.0,0.0,42,0.00,,BKN200,0.00,VWS V14.01,2013-02-17 18:00:00,
2013-02-17 12:15:00,45.0,22.7,28.64,SSW,212,0.0,0.0,41,0.00,,BKN200,0.00,VWS V14.01,2013-02-17 18:15:00,
2013-02-17 12:30:00,45.9,23.5,28.64,SW,235,0.0,9.4,41,0.00,,BKN200,0.00,VWS V14.01,2013-02-17 18:30:00,
2013-02-17 12:45:00,46.4,23.4,28.61,SW,236,0.0,8.1,40,0.00,,BKN200,0.00,VWS V14.01,2013-02-17 18:45:00,
2013-02-17 13:00:00,47.5,24.4,28.61,WSW,258,0.0,0.0,40,0.00,,BKN200,0.00,VWS V14.01,2013-02-17 19:00:00,
2013-02-17 13:15:00,48.2,24.4,28.61,SW,232,0.0,8.1,39,0.00,,BKN200,0.00,VWS V14.01,2013-02-17 19:15:00,
2013-02-17 13:30:00,48.9,24.5,28.59,SSW,195,0.0,9.4,38,0.00,,BKN200,0.00,VWS V14.01,2013-02-17 19:30:00,
2013-02-17 13:45:00,50.0,25.4,28.59,SW,226,0.0,13.4,38,0.00,,BKN200,0.00,VWS V14.01,2013-02-17 19:45:00,
2013-02-17 14:00:00,50.9,26.2,28.59,WSW,237,0.0,8.1,38,0.00,,BKN200,0.00,VWS V14.01,2013-02-17 20:00:00,
2013-02-17 14:15:00,51.4,26.7,28.56,WSW,244,0.0,8.1,38,0.00,,OVC200,0.00,VWS V14.01,2013-02-17 20:15:00,
2013-02-17 14:30:00,52.0,27.2,28.56,SW,225,0.0,16.8,38,0.00,,OVC200,0.00,VWS V14.01,2013-02-17 20:30:00,
2013-02-17 14:45:00,52.3,26.9,28.56,SW,218,0.0,0.0,37,0.00,,OVC200,0.00,VWS V14.01,2013-02-17 20:45:00,
2013-02-17 15:00:00,52.0,26.5,28.53,SSW,212,0.0,8.1,37,0.00,,OVC200,0.00,VWS V14.01,2013-02-17 21:00:00,
2013-02-17 15:15:00,52.9,27.3,28.53,SW,230,0.0,0.0,37,0.00,,OVC200,0.00,VWS V14.01,2013-02-17 21:15:00,
2013-02-17 15:30:00,54.5,28.8,28.53,SW,232,0.0,9.4,37,0.00,,OVC200,0.00,VWS V14.01,2013-02-17 21:30:00,
2013-02-17 15:45:00,54.5,28.1,28.53,SW,221,0.0,8.1,36,0.00,,OVC200,0.00,VWS V14.01,2013-02-17 21:45:00,
2013-02-17 16:00:00,54.3,28.0,28.53,South,186,0.0,8.1,36,0.00,,OVC200,0.00,VWS V14.01,2013-02-17 22:00:00,
2013-02-17 16:15:00,53.8,27.5,28.50,WSW,244,0.0,0.0,36,0.00,,OVC200,0.00,VWS V14.01,2013-02-17 22:15:00,
2013-02-17 16:30:00,53.8,28.1,28.50,SW,223,0.0,0.0,37,0.00,,OVC200,0.00,VWS V14.01,2013-02-17 22:30:00,
2013-02-17 16:45:00,54.3,28.6,28.50,SW,233,0.0,0.0,37,0.00,,OVC200,0.00,VWS V14.01,2013-02-17 22:45:00,
2013-02-17 17:00:00,54.1,28.5,28.50,SW,231,0.0,0.0,37,0.00,,OVC200,0.00,VWS V14.01,2013-02-17 23:00:00,
2013-02-17 17:15:00,53.4,27.8,28.47,SW,229,0.0,0.0,37,0.00,,BKN200,0.00,VWS V14.01,2013-02-17 23:15:00,
2013-02-17 17:30:00,52.2,27.3,28.47,SW,217,0.0,0.0,38,0.00,,BKN200,0.00,VWS V14.01,2013-02-17 23:30:00,
2013-02-17 17:45:00,50.7,26.0,28.50,WSW,237,0.0,8.1,38,0.00,,BKN200,0.00,VWS V14.01,2013-02-17 23:45:00,
2013-02-17 18:00:00,49.5,26.2,28.47,SW,221,0.0,0.0,40,0.00,,BKN200,0.00,VWS V14.01,2013-02-18 00:00:00,
2013-02-17 18:15:00,48.4,25.8,28.47,SW,233,0.0,0.0,41,0.00,,BKN200,0.00,VWS V14.01,2013-02-18 00:15:00,
2013-02-17 18:30:00,47.3,26.0,28.47,SW,229,0.0,0.0,43,0.00,,BKN200,0.00,VWS V14.01,2013-02-18 00:30:00,
2013-02-17 18:45:00,46.8,26.0,28.47,SW,236,0.0,0.0,44,0.00,,BKN200,0.00,VWS V14.01,2013-02-18 00:45:00,
2013-02-17 19:00:00,46.9,26.7,28.47,SW,236,0.0,8.1,45,0.00,,BKN200,0.00,VWS V14.01,2013-02-18 01:00:00,
2013-02-17 19:15:00,46.4,26.8,28.47,WSW,238,0.0,0.0,46,0.00,,BKN200,0.00,VWS V14.01,2013-02-18 01:15:00,
2013-02-17 19:30:00,46.8,27.1,28.47,WSW,243,0.0,0.0,46,0.00,,BKN200,0.00,VWS V14.01,2013-02-18 01:30:00,
2013-02-17 19:45:00,46.9,26.7,28.47,WSW,248,0.0,0.0,45,0.00,,BKN200,0.00,VWS V14.01,2013-02-18 01:45:00,
2013-02-17 20:00:00,46.9,26.7,28.47,SW,235,0.0,0.0,45,0.00,,BKN200,0.00,VWS V14.01,2013-02-18 02:00:00,
2013-02-17 20:15:00,46.8,26.6,28.47,SW,228,0.0,0.0,45,0.00,,BKN200,0.00,VWS V14.01,2013-02-18 02:15:00,
2013-02-17 20:30:00,46.8,26.6,28.47,SW,229,0.0,10.7,45,0.00,,BKN200,0.00,VWS V14.01,2013-02-18 02:30:00,
2013-02-17 20:45:00,46.8,26.6,28.47,SW,220,0.0,8.1,45,0.00,,BKN200,0.00,VWS V14.01,2013-02-18 02:45:00,
2013-02-17 21:00:00,46.4,26.2,28.47,WSW,239,0.0,8.1,45,0.00,,BKN200,0.00,VWS V14.01,2013-02-18 03:00:00,
2013-02-17 21:15:00,46.6,26.4,28.44,WSW,241,0.0,0.0,45,0.00,,BKN200,0.00,VWS V14.01,2013-02-18 03:15:00,
2013-02-17 21:30:00,46.8,26.0,28.44,SW,233,0.0,0.0,44,0.00,,BKN200,0.00,VWS V14.01,2013-02-18 03:30:00,
2013-02-17 21:45:00,46.4,25.7,28.44,SW,232,0.0,8.1,44,0.00,,BKN200,0.00,VWS V14.01,2013-02-18 03:45:00,
2013-02-17 22:00:00,46.0,25.9,28.44,WSW,241,0.0,0.0,45,0.00,,BKN200,0.00,VWS V14.01,2013-02-18 04:00:00,
2013-02-17 22:15:00,45.7,26.1,28.44,WSW,244,0.0,0.0,46,0.00,,BKN200,0.00,VWS V14.01,2013-02-18 04:15:00,
2013-02-17 22:30:00,45.1,26.1,28.44,SW,235,0.0,0.0,47,0.00,,BKN200,0.00,VWS V14.01,2013-02-18 04:30:00,
2013-02-17 22:45:00,44.6,26.1,28.44,SW,236,0.0,0.0,48,0.00,,BKN200,0.00,VWS V14.01,2013-02-18 04:45:00,
2013-02-17 23:00:00,44.1,26.1,28.41,SW,227,0.0,0.0,49,0.00,,BKN200,0.00,VWS V14.01,2013-02-18 05:00:00,
2013-02-17 23:15:00,43.7,25.8,28.41,SW,230,0.0,0.0,49,0.00,,BKN200,0.00,VWS V14.01,2013-02-18 05:15:00,
2013-02-17 23:30:00,43.0,25.1,28.41,SW,227,0.0,0.0,49,0.00,,BKN200,0.00,VWS V14.01,2013-02-18 05:30:00,
2013-02-17 23:45:00,42.4,25.1,28.41,SW,217,0.0,0.0,50,0.00,,BKN200,0.00,VWS V14.01,2013-02-18 05:45:00,